Tropical Cyclones
[Index]
Main Index Home Page Stock Weather Photos Extreme Storms Discussion Storm News and Storm Chasing Reports Tropical Cyclones / Hurricanes / Typhoons Weather Data and Links Wild Fires / Bushfires Weather Observation Techniques Weather Picture Catalogue Tornado Pictures and Reports Stock Video Footage and DVDs for sale
Season 1995-1996 Tropical Cyclone KIRSTY Track Map
Season 1995-1996 Summaries: [BoM-AU] [JTWC-AU] [JTWC-SIO] [JTWC-SPAC] [JTWC-SH]
<<- Previous TC | BoM 1995-1996 Season | Next TC ->>

click for intensity scale information  Lat/long Grid: Show Hide

 Date Labels: Show Hide

Bureau of Meteorology Tropical Cyclone Data

Name: KIRSTY
Number: 788 / 199596_12

07 Mar 1996 10:00 UTC to 14 Mar 1996 01:00 UTC

    date/time    lat    long    hPa   cat  kts
1996-03-07 10   17.3   122.8   1000         27          
1996-03-07 13   17.2   122.4   1000         27          
1996-03-07 16   17.0   122.0    998         29          
1996-03-07 19   16.9   121.5    998         29          
1996-03-07 22   16.8   121.1    998         29          
1996-03-08 01   16.7   120.7    998         29          
1996-03-08 04   16.7   120.3    998         29          
1996-03-08 07   16.6   120.1    998         29          
1996-03-08 10   16.3   120.0    995    1    35          
1996-03-08 13   16.0   119.9    995    1    35          
1996-03-08 16   15.6   119.8    995    1    35          
1996-03-08 19   15.4   120.0    990    1    41          
1996-03-08 22   15.6   120.1    990    1    41          
1996-03-09 01   16.0   120.1    990    1    41          
1996-03-09 04   16.2   119.7    985    2    47          
1996-03-09 07   16.1   119.8    985    2    47          
1996-03-09 10   16.0   119.8    985    2    47          
1996-03-09 13   15.9   119.9    985    2    47          
1996-03-09 16   15.8   120.0    980    2    54          
1996-03-09 19   15.8   120.2    980    2    54          
1996-03-09 22   15.9   120.4    980    2    54          
1996-03-10 01   16.0   120.6    975    2    60          
1996-03-10 04   16.2   120.9    975    2    60          
1996-03-10 07   16.5   121.2    970    3    66          
1996-03-10 10   16.8   121.2    970    3    66          
1996-03-10 13   17.1   121.2    965    3    70          
1996-03-10 16   17.3   121.1    965    3    70          
1996-03-10 19   17.4   120.8    960    3    76          
1996-03-10 22   17.6   120.8    960    3    76          
1996-03-11 01   17.9   120.8    955    4    80          
1996-03-11 04   18.2   120.6    955    4    80          
1996-03-11 07   18.5   120.4    955    4    80          
1996-03-11 10   18.8   120.2    955    4    80          
1996-03-11 13   19.2   120.0    950    4    84          
1996-03-11 16   19.4   119.9    940    4    93          
1996-03-11 19   19.8   119.7    935    4    97          
1996-03-11 22   20.1   119.5    935    4    97          
1996-03-12 01   20.5   119.4    945    4    89          
1996-03-12 04   20.9   119.4    955    4    80          
1996-03-12 07   21.3   119.4    965    3    70          
1996-03-12 10   21.8   119.6    975    2    60          
1996-03-12 13   22.3   119.7    980    2    54          
1996-03-12 16   22.8   119.8    985    2    47          
1996-03-12 19   23.4   120.0    990    1    41          
1996-03-12 22   24.0   120.2    995    1    35          
1996-03-13 01   24.6   120.4    995    1    35          
1996-03-13 04   25.2   120.6    995    1    35          
1996-03-13 07   25.7   120.8    995    1    35          
1996-03-13 10   26.2   121.2    995    1    35          
1996-03-13 13   26.8   121.8    998         29          
1996-03-13 16   27.4   122.4    998         29          
1996-03-13 19   28.1   123.2    998         29          
1996-03-13 22   28.8   124.2    998         29          
1996-03-14 01   29.5   125.4   1000         27          
Winds are 10-min average.

Tropical cyclone tracks developed by Michael Bath using data from the Bureau of Meteorology and Google Maps.


[Australian Severe Weather index] [Copyright Notice] [Email Contacts] [Search This Site] [Privacy Policy]
Document: tropical_cyclone_kirsty.htm Updated: 30 May 2013